sensor_id;sensor_type;location;lat;lon;timestamp;P1;durP1;ratioP1;P2;durP2;ratioP2
40611;SDS011;26317;44.894;20.286;2023-06-22T00:02:24;24.27;;;21.35;;
40611;SDS011;26317;44.894;20.286;2023-06-22T00:04:54;24.83;;;22.23;;
40611;SDS011;26317;44.894;20.286;2023-06-22T00:07:27;27.80;;;21.67;;
40611;SDS011;26317;44.894;20.286;2023-06-22T00:09:59;27.95;;;22.10;;
40611;SDS011;26317;44.894;20.286;2023-06-22T00:12:37;30.48;;;22.05;;
40611;SDS011;26317;44.894;20.286;2023-06-22T00:15:10;29.30;;;22.58;;
40611;SDS011;26317;44.894;20.286;2023-06-22T00:17:42;24.85;;;22.25;;
40611;SDS011;26317;44.894;20.286;2023-06-22T00:20:16;30.80;;;22.33;;
40611;SDS011;26317;44.894;20.286;2023-06-22T00:22:47;26.13;;;20.95;;
40611;SDS011;26317;44.894;20.286;2023-06-22T00:25:17;25.17;;;22.20;;
40611;SDS011;26317;44.894;20.286;2023-06-22T00:27:53;23.60;;;21.13;;
40611;SDS011;26317;44.894;20.286;2023-06-22T00:30:26;27.83;;;22.13;;
40611;SDS011;26317;44.894;20.286;2023-06-22T00:32:57;27.00;;;22.35;;
40611;SDS011;26317;44.894;20.286;2023-06-22T00:35:32;27.02;;;21.75;;
40611;SDS011;26317;44.894;20.286;2023-06-22T00:38:03;28.83;;;22.35;;
40611;SDS011;26317;44.894;20.286;2023-06-22T00:40:35;25.20;;;22.48;;
40611;SDS011;26317;44.894;20.286;2023-06-22T00:43:10;29.23;;;24.15;;
40611;SDS011;26317;44.894;20.286;2023-06-22T00:45:44;23.50;;;20.90;;
40611;SDS011;26317;44.894;20.286;2023-06-22T00:48:18;23.92;;;21.40;;
40611;SDS011;26317;44.894;20.286;2023-06-22T00:50:53;27.45;;;21.98;;
40611;SDS011;26317;44.894;20.286;2023-06-22T00:53:32;28.33;;;21.25;;
40611;SDS011;26317;44.894;20.286;2023-06-22T00:56:09;24.17;;;21.48;;
40611;SDS011;26317;44.894;20.286;2023-06-22T00:58:46;30.05;;;21.70;;
40611;SDS011;26317;44.894;20.286;2023-06-22T01:01:22;23.52;;;21.02;;
40611;SDS011;26317;44.894;20.286;2023-06-22T01:03:57;24.02;;;21.55;;
40611;SDS011;26317;44.894;20.286;2023-06-22T01:06:28;24.77;;;21.63;;
40611;SDS011;26317;44.894;20.286;2023-06-22T01:09:08;25.10;;;21.95;;
40611;SDS011;26317;44.894;20.286;2023-06-22T01:11:45;23.30;;;20.88;;
40611;SDS011;26317;44.894;20.286;2023-06-22T01:14:27;27.30;;;22.77;;
40611;SDS011;26317;44.894;20.286;2023-06-22T01:17:05;31.33;;;22.38;;
40611;SDS011;26317;44.894;20.286;2023-06-22T01:19:43;26.00;;;22.25;;
40611;SDS011;26317;44.894;20.286;2023-06-22T01:22:19;24.52;;;21.80;;
40611;SDS011;26317;44.894;20.286;2023-06-22T01:24:56;25.35;;;20.80;;
40611;SDS011;26317;44.894;20.286;2023-06-22T01:27:39;25.50;;;21.73;;
40611;SDS011;26317;44.894;20.286;2023-06-22T01:30:22;24.73;;;21.08;;
40611;SDS011;26317;44.894;20.286;2023-06-22T01:33:10;23.07;;;20.83;;
40611;SDS011;26317;44.894;20.286;2023-06-22T01:35:43;30.70;;;23.25;;
40611;SDS011;26317;44.894;20.286;2023-06-22T01:38:25;25.38;;;22.40;;
40611;SDS011;26317;44.894;20.286;2023-06-22T01:40:59;27.85;;;22.95;;
40611;SDS011;26317;44.894;20.286;2023-06-22T01:43:31;24.35;;;21.73;;
40611;SDS011;26317;44.894;20.286;2023-06-22T01:46:05;28.25;;;22.25;;
40611;SDS011;26317;44.894;20.286;2023-06-22T01:48:36;22.77;;;20.30;;
40611;SDS011;26317;44.894;20.286;2023-06-22T01:51:11;35.70;;;20.52;;
40611;SDS011;26317;44.894;20.286;2023-06-22T01:53:45;23.25;;;18.73;;
40611;SDS011;26317;44.894;20.286;2023-06-22T01:56:21;25.30;;;19.02;;
40611;SDS011;26317;44.894;20.286;2023-06-22T01:59:01;24.15;;;19.58;;
40611;SDS011;26317;44.894;20.286;2023-06-22T02:01:40;25.88;;;19.13;;
40611;SDS011;26317;44.894;20.286;2023-06-22T02:04:17;27.23;;;19.90;;
40611;SDS011;26317;44.894;20.286;2023-06-22T02:06:54;28.90;;;19.83;;
40611;SDS011;26317;44.894;20.286;2023-06-22T02:09:30;25.88;;;20.30;;
40611;SDS011;26317;44.894;20.286;2023-06-22T02:12:03;30.20;;;19.70;;
40611;SDS011;26317;44.894;20.286;2023-06-22T02:14:37;24.90;;;20.58;;
40611;SDS011;26317;44.894;20.286;2023-06-22T02:17:13;26.30;;;19.63;;
40611;SDS011;26317;44.894;20.286;2023-06-22T02:19:44;25.90;;;20.65;;
40611;SDS011;26317;44.894;20.286;2023-06-22T02:22:17;23.48;;;18.67;;
40611;SDS011;26317;44.894;20.286;2023-06-22T02:24:50;25.40;;;20.80;;
40611;SDS011;26317;44.894;20.286;2023-06-22T02:27:20;24.23;;;20.17;;
40611;SDS011;26317;44.894;20.286;2023-06-22T02:29:51;22.30;;;20.00;;
40611;SDS011;26317;44.894;20.286;2023-06-22T02:32:23;22.15;;;18.83;;
40611;SDS011;26317;44.894;20.286;2023-06-22T02:34:54;23.45;;;18.92;;
40611;SDS011;26317;44.894;20.286;2023-06-22T02:37:25;24.13;;;19.83;;
40611;SDS011;26317;44.894;20.286;2023-06-22T02:39:57;20.95;;;18.77;;
40611;SDS011;26317;44.894;20.286;2023-06-22T02:42:28;21.92;;;19.38;;
40611;SDS011;26317;44.894;20.286;2023-06-22T02:44:59;27.85;;;20.77;;
40611;SDS011;26317;44.894;20.286;2023-06-22T02:47:38;25.95;;;19.50;;
40611;SDS011;26317;44.894;20.286;2023-06-22T02:50:14;29.92;;;20.65;;
40611;SDS011;26317;44.894;20.286;2023-06-22T02:52:50;22.13;;;19.80;;
40611;SDS011;26317;44.894;20.286;2023-06-22T02:55:37;23.33;;;21.00;;
40611;SDS011;26317;44.894;20.286;2023-06-22T02:58:09;23.35;;;20.92;;
40611;SDS011;26317;44.894;20.286;2023-06-22T03:00:43;31.80;;;25.45;;
40611;SDS011;26317;44.894;20.286;2023-06-22T03:03:21;27.40;;;24.60;;
40611;SDS011;26317;44.894;20.286;2023-06-22T03:05:55;33.45;;;25.35;;
40611;SDS011;26317;44.894;20.286;2023-06-22T03:08:28;35.70;;;26.13;;
40611;SDS011;26317;44.894;20.286;2023-06-22T03:10:58;28.10;;;24.38;;
40611;SDS011;26317;44.894;20.286;2023-06-22T03:13:31;32.03;;;26.88;;
40611;SDS011;26317;44.894;20.286;2023-06-22T03:16:01;29.73;;;25.20;;
40611;SDS011;26317;44.894;20.286;2023-06-22T03:18:34;35.83;;;26.85;;
40611;SDS011;26317;44.894;20.286;2023-06-22T03:21:04;27.90;;;24.75;;
40611;SDS011;26317;44.894;20.286;2023-06-22T03:23:35;35.97;;;25.52;;
40611;SDS011;26317;44.894;20.286;2023-06-22T03:26:08;28.40;;;24.17;;
40611;SDS011;26317;44.894;20.286;2023-06-22T03:28:38;33.67;;;24.85;;
40611;SDS011;26317;44.894;20.286;2023-06-22T03:31:09;30.20;;;24.73;;
40611;SDS011;26317;44.894;20.286;2023-06-22T03:36:15;29.98;;;23.13;;
40611;SDS011;26317;44.894;20.286;2023-06-22T03:38:47;23.65;;;21.00;;
40611;SDS011;26317;44.894;20.286;2023-06-22T03:41:18;26.83;;;19.77;;
40611;SDS011;26317;44.894;20.286;2023-06-22T03:43:49;22.17;;;17.33;;
40611;SDS011;26317;44.894;20.286;2023-06-22T03:46:19;21.15;;;17.15;;
40611;SDS011;26317;44.894;20.286;2023-06-22T03:48:58;21.25;;;16.23;;
40611;SDS011;26317;44.894;20.286;2023-06-22T03:51:37;21.17;;;15.52;;
40611;SDS011;26317;44.894;20.286;2023-06-22T03:54:09;17.52;;;14.77;;
40611;SDS011;26317;44.894;20.286;2023-06-22T03:56:49;19.08;;;17.15;;
40611;SDS011;26317;44.894;20.286;2023-06-22T03:59:20;21.40;;;15.98;;
40611;SDS011;26317;44.894;20.286;2023-06-22T04:01:52;20.88;;;14.88;;
40611;SDS011;26317;44.894;20.286;2023-06-22T04:04:25;19.05;;;14.25;;
40611;SDS011;26317;44.894;20.286;2023-06-22T04:06:56;17.70;;;13.88;;
40611;SDS011;26317;44.894;20.286;2023-06-22T04:09:27;18.50;;;15.27;;
40611;SDS011;26317;44.894;20.286;2023-06-22T04:11:57;16.00;;;14.10;;
40611;SDS011;26317;44.894;20.286;2023-06-22T04:14:31;17.92;;;15.23;;
40611;SDS011;26317;44.894;20.286;2023-06-22T04:19:35;18.40;;;13.90;;
40611;SDS011;26317;44.894;20.286;2023-06-22T04:22:05;18.65;;;14.63;;
40611;SDS011;26317;44.894;20.286;2023-06-22T04:24:36;15.43;;;12.85;;
40611;SDS011;26317;44.894;20.286;2023-06-22T04:27:07;14.70;;;13.20;;
40611;SDS011;26317;44.894;20.286;2023-06-22T04:29:38;15.38;;;13.77;;
40611;SDS011;26317;44.894;20.286;2023-06-22T04:32:15;15.35;;;13.80;;
40611;SDS011;26317;44.894;20.286;2023-06-22T04:34:48;20.20;;;13.93;;
40611;SDS011;26317;44.894;20.286;2023-06-22T04:37:19;15.85;;;13.95;;
40611;SDS011;26317;44.894;20.286;2023-06-22T04:39:50;16.50;;;13.38;;
40611;SDS011;26317;44.894;20.286;2023-06-22T04:42:20;18.50;;;13.35;;
40611;SDS011;26317;44.894;20.286;2023-06-22T04:44:51;14.98;;;13.23;;
40611;SDS011;26317;44.894;20.286;2023-06-22T04:47:22;17.05;;;13.38;;
40611;SDS011;26317;44.894;20.286;2023-06-22T04:49:57;19.60;;;13.73;;
40611;SDS011;26317;44.894;20.286;2023-06-22T04:52:34;16.58;;;12.50;;
40611;SDS011;26317;44.894;20.286;2023-06-22T04:55:07;17.20;;;13.35;;
40611;SDS011;26317;44.894;20.286;2023-06-22T04:57:43;16.55;;;13.57;;
40611;SDS011;26317;44.894;20.286;2023-06-22T05:00:30;15.35;;;13.57;;
40611;SDS011;26317;44.894;20.286;2023-06-22T05:03:03;15.68;;;13.82;;
40611;SDS011;26317;44.894;20.286;2023-06-22T05:05:49;18.63;;;13.90;;
40611;SDS011;26317;44.894;20.286;2023-06-22T05:08:20;19.25;;;14.48;;
40611;SDS011;26317;44.894;20.286;2023-06-22T05:10:55;25.20;;;14.63;;
40611;SDS011;26317;44.894;20.286;2023-06-22T05:13:31;16.85;;;13.60;;
40611;SDS011;26317;44.894;20.286;2023-06-22T05:16:02;18.60;;;13.48;;
40611;SDS011;26317;44.894;20.286;2023-06-22T05:21:05;17.48;;;14.50;;
40611;SDS011;26317;44.894;20.286;2023-06-22T05:23:40;18.23;;;14.23;;
40611;SDS011;26317;44.894;20.286;2023-06-22T05:26:15;18.48;;;14.70;;
40611;SDS011;26317;44.894;20.286;2023-06-22T05:28:46;17.70;;;13.57;;
40611;SDS011;26317;44.894;20.286;2023-06-22T05:31:19;17.40;;;13.88;;
40611;SDS011;26317;44.894;20.286;2023-06-22T05:33:51;16.83;;;13.77;;
40611;SDS011;26317;44.894;20.286;2023-06-22T05:36:24;19.92;;;15.18;;
40611;SDS011;26317;44.894;20.286;2023-06-22T05:38:56;17.55;;;13.93;;
40611;SDS011;26317;44.894;20.286;2023-06-22T05:41:26;17.77;;;13.18;;
40611;SDS011;26317;44.894;20.286;2023-06-22T05:43:57;17.50;;;14.65;;
40611;SDS011;26317;44.894;20.286;2023-06-22T05:46:27;19.88;;;13.73;;
40611;SDS011;26317;44.894;20.286;2023-06-22T05:48:57;24.33;;;14.68;;
40611;SDS011;26317;44.894;20.286;2023-06-22T05:51:30;23.90;;;12.88;;
40611;SDS011;26317;44.894;20.286;2023-06-22T05:54:02;21.95;;;14.20;;
40611;SDS011;26317;44.894;20.286;2023-06-22T05:56:36;12.82;;;11.63;;
40611;SDS011;26317;44.894;20.286;2023-06-22T05:59:10;27.73;;;14.00;;
40611;SDS011;26317;44.894;20.286;2023-06-22T06:01:42;17.40;;;13.02;;
40611;SDS011;26317;44.894;20.286;2023-06-22T06:04:17;19.08;;;12.70;;
40611;SDS011;26317;44.894;20.286;2023-06-22T06:06:51;18.33;;;12.30;;
40611;SDS011;26317;44.894;20.286;2023-06-22T06:09:22;16.02;;;12.45;;
40611;SDS011;26317;44.894;20.286;2023-06-22T06:11:53;12.07;;;10.82;;
40611;SDS011;26317;44.894;20.286;2023-06-22T06:14:23;15.38;;;12.30;;
40611;SDS011;26317;44.894;20.286;2023-06-22T06:16:55;17.27;;;11.65;;
40611;SDS011;26317;44.894;20.286;2023-06-22T06:19:25;15.85;;;12.70;;
40611;SDS011;26317;44.894;20.286;2023-06-22T06:21:59;16.77;;;12.30;;
40611;SDS011;26317;44.894;20.286;2023-06-22T06:24:33;13.48;;;11.55;;
40611;SDS011;26317;44.894;20.286;2023-06-22T06:27:04;13.68;;;11.52;;
40611;SDS011;26317;44.894;20.286;2023-06-22T06:29:34;21.52;;;12.25;;
40611;SDS011;26317;44.894;20.286;2023-06-22T06:32:05;12.95;;;11.15;;
40611;SDS011;26317;44.894;20.286;2023-06-22T06:34:36;15.82;;;11.80;;
40611;SDS011;26317;44.894;20.286;2023-06-22T06:37:13;20.25;;;11.65;;
40611;SDS011;26317;44.894;20.286;2023-06-22T06:39:51;27.92;;;12.18;;
40611;SDS011;26317;44.894;20.286;2023-06-22T06:42:27;16.02;;;10.38;;
40611;SDS011;26317;44.894;20.286;2023-06-22T06:45:12;24.70;;;10.00;;
40611;SDS011;26317;44.894;20.286;2023-06-22T06:47:46;12.85;;;8.93;;
40611;SDS011;26317;44.894;20.286;2023-06-22T06:50:16;13.73;;;9.50;;
40611;SDS011;26317;44.894;20.286;2023-06-22T06:52:50;15.60;;;8.43;;
40611;SDS011;26317;44.894;20.286;2023-06-22T06:55:21;9.63;;;7.75;;
40611;SDS011;26317;44.894;20.286;2023-06-22T06:57:52;11.23;;;8.88;;
40611;SDS011;26317;44.894;20.286;2023-06-22T07:00:22;11.45;;;8.60;;
40611;SDS011;26317;44.894;20.286;2023-06-22T07:02:53;15.75;;;8.38;;
40611;SDS011;26317;44.894;20.286;2023-06-22T07:05:23;11.85;;;8.02;;
40611;SDS011;26317;44.894;20.286;2023-06-22T07:07:56;11.93;;;7.85;;
40611;SDS011;26317;44.894;20.286;2023-06-22T07:10:27;9.18;;;8.18;;
40611;SDS011;26317;44.894;20.286;2023-06-22T07:12:59;14.00;;;8.70;;
40611;SDS011;26317;44.894;20.286;2023-06-22T07:15:29;10.60;;;7.90;;
40611;SDS011;26317;44.894;20.286;2023-06-22T07:17:59;10.32;;;8.63;;
40611;SDS011;26317;44.894;20.286;2023-06-22T07:20:29;8.55;;;7.80;;
40611;SDS011;26317;44.894;20.286;2023-06-22T07:25:33;10.18;;;8.70;;
40611;SDS011;26317;44.894;20.286;2023-06-22T07:28:04;12.30;;;8.75;;
40611;SDS011;26317;44.894;20.286;2023-06-22T07:30:36;10.35;;;7.93;;
40611;SDS011;26317;44.894;20.286;2023-06-22T07:33:06;13.55;;;9.13;;
40611;SDS011;26317;44.894;20.286;2023-06-22T07:35:37;9.95;;;8.95;;
40611;SDS011;26317;44.894;20.286;2023-06-22T07:38:10;10.07;;;8.32;;
40611;SDS011;26317;44.894;20.286;2023-06-22T07:40:41;19.38;;;9.18;;
40611;SDS011;26317;44.894;20.286;2023-06-22T07:43:11;9.45;;;8.40;;
40611;SDS011;26317;44.894;20.286;2023-06-22T07:45:44;9.40;;;8.13;;
40611;SDS011;26317;44.894;20.286;2023-06-22T07:48:19;10.93;;;8.73;;
40611;SDS011;26317;44.894;20.286;2023-06-22T07:50:50;15.10;;;8.68;;
40611;SDS011;26317;44.894;20.286;2023-06-22T07:53:23;16.98;;;8.70;;
40611;SDS011;26317;44.894;20.286;2023-06-22T07:55:55;13.93;;;8.20;;
40611;SDS011;26317;44.894;20.286;2023-06-22T07:58:25;8.80;;;7.88;;
40611;SDS011;26317;44.894;20.286;2023-06-22T08:00:55;13.82;;;8.70;;
40611;SDS011;26317;44.894;20.286;2023-06-22T08:03:26;9.93;;;7.90;;
40611;SDS011;26317;44.894;20.286;2023-06-22T08:05:56;12.05;;;8.27;;
40611;SDS011;26317;44.894;20.286;2023-06-22T08:08:29;14.98;;;8.32;;
40611;SDS011;26317;44.894;20.286;2023-06-22T08:11:00;11.73;;;8.48;;
40611;SDS011;26317;44.894;20.286;2023-06-22T08:13:31;12.60;;;9.38;;
40611;SDS011;26317;44.894;20.286;2023-06-22T08:16:01;8.77;;;7.80;;
40611;SDS011;26317;44.894;20.286;2023-06-22T08:18:31;11.07;;;8.00;;
40611;SDS011;26317;44.894;20.286;2023-06-22T08:21:02;13.43;;;9.32;;
40611;SDS011;26317;44.894;20.286;2023-06-22T08:26:05;11.90;;;9.05;;
40611;SDS011;26317;44.894;20.286;2023-06-22T08:28:35;22.23;;;9.07;;
40611;SDS011;26317;44.894;20.286;2023-06-22T08:31:05;15.77;;;9.48;;
40611;SDS011;26317;44.894;20.286;2023-06-22T08:33:35;18.52;;;8.98;;
40611;SDS011;26317;44.894;20.286;2023-06-22T08:36:15;12.05;;;9.52;;
40611;SDS011;26317;44.894;20.286;2023-06-22T08:38:48;9.85;;;8.45;;
40611;SDS011;26317;44.894;20.286;2023-06-22T08:41:19;10.63;;;9.52;;
40611;SDS011;26317;44.894;20.286;2023-06-22T08:43:49;10.77;;;8.85;;
40611;SDS011;26317;44.894;20.286;2023-06-22T08:46:19;9.13;;;8.32;;
40611;SDS011;26317;44.894;20.286;2023-06-22T08:48:57;9.90;;;8.88;;
40611;SDS011;26317;44.894;20.286;2023-06-22T08:51:27;10.88;;;8.98;;
40611;SDS011;26317;44.894;20.286;2023-06-22T08:54:01;10.80;;;8.70;;
40611;SDS011;26317;44.894;20.286;2023-06-22T08:56:31;10.30;;;8.50;;
40611;SDS011;26317;44.894;20.286;2023-06-22T08:59:02;9.48;;;8.52;;
40611;SDS011;26317;44.894;20.286;2023-06-22T09:01:34;12.25;;;8.65;;
40611;SDS011;26317;44.894;20.286;2023-06-22T09:06:36;12.80;;;8.88;;
40611;SDS011;26317;44.894;20.286;2023-06-22T09:09:15;9.38;;;8.52;;
40611;SDS011;26317;44.894;20.286;2023-06-22T09:11:46;10.90;;;8.70;;
40611;SDS011;26317;44.894;20.286;2023-06-22T09:14:17;10.48;;;9.48;;
40611;SDS011;26317;44.894;20.286;2023-06-22T09:16:47;10.90;;;9.77;;
40611;SDS011;26317;44.894;20.286;2023-06-22T09:21:48;9.82;;;8.55;;
40611;SDS011;26317;44.894;20.286;2023-06-22T09:24:21;11.35;;;10.13;;
40611;SDS011;26317;44.894;20.286;2023-06-22T09:26:51;15.07;;;9.63;;
40611;SDS011;26317;44.894;20.286;2023-06-22T09:29:22;11.43;;;9.45;;
40611;SDS011;26317;44.894;20.286;2023-06-22T09:34:23;11.05;;;9.57;;
40611;SDS011;26317;44.894;20.286;2023-06-22T09:36:53;11.60;;;9.18;;
40611;SDS011;26317;44.894;20.286;2023-06-22T09:39:26;9.95;;;8.95;;
40611;SDS011;26317;44.894;20.286;2023-06-22T09:41:57;14.48;;;9.52;;
40611;SDS011;26317;44.894;20.286;2023-06-22T09:44:28;9.07;;;8.18;;
40611;SDS011;26317;44.894;20.286;2023-06-22T09:46:59;10.18;;;8.75;;
40611;SDS011;26317;44.894;20.286;2023-06-22T09:49:29;10.32;;;9.23;;
40611;SDS011;26317;44.894;20.286;2023-06-22T09:52:13;12.85;;;9.15;;
40611;SDS011;26317;44.894;20.286;2023-06-22T09:54:47;14.40;;;9.05;;
40611;SDS011;26317;44.894;20.286;2023-06-22T09:57:17;10.02;;;9.07;;
40611;SDS011;26317;44.894;20.286;2023-06-22T09:59:47;13.82;;;8.82;;
40611;SDS011;26317;44.894;20.286;2023-06-22T10:02:18;10.73;;;8.95;;
40611;SDS011;26317;44.894;20.286;2023-06-22T10:04:49;10.70;;;9.27;;
40611;SDS011;26317;44.894;20.286;2023-06-22T10:07:20;12.07;;;9.32;;
40611;SDS011;26317;44.894;20.286;2023-06-22T10:09:53;12.30;;;9.13;;
40611;SDS011;26317;44.894;20.286;2023-06-22T10:12:23;12.25;;;9.32;;
40611;SDS011;26317;44.894;20.286;2023-06-22T10:14:54;9.13;;;8.32;;
40611;SDS011;26317;44.894;20.286;2023-06-22T10:17:24;9.85;;;8.23;;
40611;SDS011;26317;44.894;20.286;2023-06-22T10:19:58;8.88;;;8.07;;
40611;SDS011;26317;44.894;20.286;2023-06-22T10:22:32;9.30;;;8.30;;
40611;SDS011;26317;44.894;20.286;2023-06-22T10:25:06;14.27;;;9.43;;
40611;SDS011;26317;44.894;20.286;2023-06-22T10:27:37;9.35;;;8.40;;
40611;SDS011;26317;44.894;20.286;2023-06-22T10:30:10;9.30;;;8.50;;
40611;SDS011;26317;44.894;20.286;2023-06-22T10:32:42;11.40;;;8.38;;
40611;SDS011;26317;44.894;20.286;2023-06-22T10:35:13;12.13;;;8.23;;
40611;SDS011;26317;44.894;20.286;2023-06-22T10:37:44;12.20;;;8.65;;
40611;SDS011;26317;44.894;20.286;2023-06-22T10:40:18;10.88;;;8.60;;
40611;SDS011;26317;44.894;20.286;2023-06-22T10:42:49;9.82;;;8.80;;
40611;SDS011;26317;44.894;20.286;2023-06-22T10:47:49;9.27;;;7.43;;
40611;SDS011;26317;44.894;20.286;2023-06-22T10:50:20;10.65;;;7.93;;
40611;SDS011;26317;44.894;20.286;2023-06-22T10:52:51;10.77;;;7.25;;
40611;SDS011;26317;44.894;20.286;2023-06-22T10:55:28;8.45;;;7.00;;
40611;SDS011;26317;44.894;20.286;2023-06-22T10:58:19;12.98;;;6.82;;
40611;SDS011;26317;44.894;20.286;2023-06-22T11:03:19;7.32;;;6.53;;
40611;SDS011;26317;44.894;20.286;2023-06-22T11:05:50;7.80;;;6.75;;
40611;SDS011;26317;44.894;20.286;2023-06-22T11:08:21;8.45;;;6.90;;
40611;SDS011;26317;44.894;20.286;2023-06-22T11:13:24;6.82;;;6.20;;
40611;SDS011;26317;44.894;20.286;2023-06-22T11:15:54;8.55;;;6.38;;
40611;SDS011;26317;44.894;20.286;2023-06-22T11:18:25;7.93;;;6.47;;
40611;SDS011;26317;44.894;20.286;2023-06-22T11:23:25;7.38;;;6.68;;
40611;SDS011;26317;44.894;20.286;2023-06-22T11:25:58;7.47;;;6.88;;
40611;SDS011;26317;44.894;20.286;2023-06-22T11:28:29;8.07;;;6.57;;
40611;SDS011;26317;44.894;20.286;2023-06-22T11:31:02;8.88;;;6.78;;
40611;SDS011;26317;44.894;20.286;2023-06-22T11:33:51;7.78;;;6.68;;
40611;SDS011;26317;44.894;20.286;2023-06-22T11:38:51;8.02;;;6.88;;
40611;SDS011;26317;44.894;20.286;2023-06-22T11:43:54;8.43;;;7.63;;
40611;SDS011;26317;44.894;20.286;2023-06-22T11:46:25;9.98;;;7.75;;
40611;SDS011;26317;44.894;20.286;2023-06-22T11:48:56;8.13;;;7.38;;
40611;SDS011;26317;44.894;20.286;2023-06-22T11:51:26;10.23;;;7.22;;
40611;SDS011;26317;44.894;20.286;2023-06-22T11:54:01;8.45;;;7.53;;
40611;SDS011;26317;44.894;20.286;2023-06-22T11:56:44;14.45;;;7.88;;
40611;SDS011;26317;44.894;20.286;2023-06-22T11:59:16;7.90;;;7.07;;
40611;SDS011;26317;44.894;20.286;2023-06-22T12:01:49;13.00;;;8.05;;
40611;SDS011;26317;44.894;20.286;2023-06-22T12:04:21;10.20;;;7.25;;
40611;SDS011;26317;44.894;20.286;2023-06-22T12:06:51;8.45;;;6.57;;
40611;SDS011;26317;44.894;20.286;2023-06-22T12:09:27;10.18;;;8.18;;
40611;SDS011;26317;44.894;20.286;2023-06-22T12:14:33;11.98;;;8.40;;
40611;SDS011;26317;44.894;20.286;2023-06-22T12:17:04;12.00;;;8.02;;
40611;SDS011;26317;44.894;20.286;2023-06-22T12:19:37;8.57;;;7.78;;
40611;SDS011;26317;44.894;20.286;2023-06-22T12:22:07;8.18;;;7.38;;
40611;SDS011;26317;44.894;20.286;2023-06-22T12:27:10;7.88;;;7.07;;
40611;SDS011;26317;44.894;20.286;2023-06-22T12:29:43;10.68;;;7.40;;
40611;SDS011;26317;44.894;20.286;2023-06-22T12:32:14;8.55;;;7.45;;
40611;SDS011;26317;44.894;20.286;2023-06-22T12:34:45;10.48;;;7.82;;
40611;SDS011;26317;44.894;20.286;2023-06-22T12:37:15;9.60;;;7.50;;
40611;SDS011;26317;44.894;20.286;2023-06-22T12:39:46;11.50;;;7.72;;
40611;SDS011;26317;44.894;20.286;2023-06-22T12:42:19;9.75;;;7.85;;
40611;SDS011;26317;44.894;20.286;2023-06-22T12:44:49;10.75;;;8.75;;
40611;SDS011;26317;44.894;20.286;2023-06-22T12:47:21;9.18;;;8.38;;
40611;SDS011;26317;44.894;20.286;2023-06-22T12:49:52;9.95;;;7.20;;
40611;SDS011;26317;44.894;20.286;2023-06-22T12:52:23;8.57;;;7.50;;
40611;SDS011;26317;44.894;20.286;2023-06-22T12:54:53;9.38;;;8.38;;
40611;SDS011;26317;44.894;20.286;2023-06-22T12:57:26;8.80;;;7.90;;
40611;SDS011;26317;44.894;20.286;2023-06-22T12:59:56;9.82;;;8.27;;
40611;SDS011;26317;44.894;20.286;2023-06-22T13:02:27;11.00;;;8.13;;
40611;SDS011;26317;44.894;20.286;2023-06-22T13:04:58;12.88;;;8.45;;
40611;SDS011;26317;44.894;20.286;2023-06-22T13:07:28;11.50;;;7.53;;
40611;SDS011;26317;44.894;20.286;2023-06-22T13:09:59;12.40;;;8.13;;
40611;SDS011;26317;44.894;20.286;2023-06-22T13:15:02;10.07;;;7.80;;
40611;SDS011;26317;44.894;20.286;2023-06-22T13:17:32;10.13;;;8.20;;
40611;SDS011;26317;44.894;20.286;2023-06-22T13:20:03;17.13;;;8.70;;
40611;SDS011;26317;44.894;20.286;2023-06-22T13:22:35;9.50;;;8.52;;
40611;SDS011;26317;44.894;20.286;2023-06-22T13:25:07;11.68;;;8.23;;
40611;SDS011;26317;44.894;20.286;2023-06-22T13:27:43;13.73;;;8.60;;
40611;SDS011;26317;44.894;20.286;2023-06-22T13:30:13;9.68;;;8.05;;
40611;SDS011;26317;44.894;20.286;2023-06-22T13:32:44;10.45;;;8.15;;
40611;SDS011;26317;44.894;20.286;2023-06-22T13:35:14;15.02;;;8.10;;
40611;SDS011;26317;44.894;20.286;2023-06-22T13:37:45;8.77;;;7.85;;
40611;SDS011;26317;44.894;20.286;2023-06-22T13:40:16;11.60;;;8.32;;
40611;SDS011;26317;44.894;20.286;2023-06-22T13:42:49;14.82;;;8.70;;
40611;SDS011;26317;44.894;20.286;2023-06-22T13:45:23;10.90;;;7.65;;
40611;SDS011;26317;44.894;20.286;2023-06-22T13:47:53;10.23;;;8.82;;
40611;SDS011;26317;44.894;20.286;2023-06-22T13:50:25;9.77;;;8.40;;
40611;SDS011;26317;44.894;20.286;2023-06-22T13:52:58;9.13;;;7.82;;
40611;SDS011;26317;44.894;20.286;2023-06-22T13:55:32;13.73;;;7.95;;
40611;SDS011;26317;44.894;20.286;2023-06-22T13:58:05;8.95;;;7.30;;
40611;SDS011;26317;44.894;20.286;2023-06-22T14:00:38;10.75;;;7.78;;
40611;SDS011;26317;44.894;20.286;2023-06-22T14:03:09;11.80;;;7.97;;
40611;SDS011;26317;44.894;20.286;2023-06-22T14:05:43;11.57;;;8.18;;
40611;SDS011;26317;44.894;20.286;2023-06-22T14:08:13;9.85;;;7.85;;
40611;SDS011;26317;44.894;20.286;2023-06-22T14:11:05;8.98;;;7.72;;
40611;SDS011;26317;44.894;20.286;2023-06-22T14:13:40;11.20;;;8.20;;
40611;SDS011;26317;44.894;20.286;2023-06-22T14:16:11;9.27;;;7.88;;
40611;SDS011;26317;44.894;20.286;2023-06-22T14:18:43;8.63;;;7.80;;
40611;SDS011;26317;44.894;20.286;2023-06-22T14:21:14;11.48;;;8.65;;
40611;SDS011;26317;44.894;20.286;2023-06-22T14:23:47;11.48;;;8.60;;
40611;SDS011;26317;44.894;20.286;2023-06-22T14:26:19;8.98;;;7.43;;
40611;SDS011;26317;44.894;20.286;2023-06-22T14:28:52;10.95;;;8.00;;
40611;SDS011;26317;44.894;20.286;2023-06-22T14:31:23;8.70;;;7.75;;
40611;SDS011;26317;44.894;20.286;2023-06-22T14:33:58;13.27;;;6.82;;
40611;SDS011;26317;44.894;20.286;2023-06-22T14:36:29;10.93;;;8.73;;
40611;SDS011;26317;44.894;20.286;2023-06-22T14:39:00;11.07;;;8.38;;
40611;SDS011;26317;44.894;20.286;2023-06-22T14:41:30;10.02;;;8.05;;
40611;SDS011;26317;44.894;20.286;2023-06-22T14:44:03;9.75;;;8.75;;
40611;SDS011;26317;44.894;20.286;2023-06-22T14:46:34;11.23;;;7.85;;
40611;SDS011;26317;44.894;20.286;2023-06-22T14:49:05;10.82;;;8.15;;
40611;SDS011;26317;44.894;20.286;2023-06-22T14:51:35;9.60;;;8.70;;
40611;SDS011;26317;44.894;20.286;2023-06-22T14:54:05;13.82;;;8.25;;
40611;SDS011;26317;44.894;20.286;2023-06-22T14:56:36;21.30;;;8.90;;
40611;SDS011;26317;44.894;20.286;2023-06-22T14:59:09;10.73;;;8.07;;
40611;SDS011;26317;44.894;20.286;2023-06-22T15:01:39;9.57;;;8.48;;
40611;SDS011;26317;44.894;20.286;2023-06-22T15:04:13;10.25;;;8.38;;
40611;SDS011;26317;44.894;20.286;2023-06-22T15:06:43;11.32;;;8.85;;
40611;SDS011;26317;44.894;20.286;2023-06-22T15:09:14;8.20;;;7.40;;
40611;SDS011;26317;44.894;20.286;2023-06-22T15:11:44;11.05;;;7.97;;
40611;SDS011;26317;44.894;20.286;2023-06-22T15:14:18;8.70;;;7.93;;
40611;SDS011;26317;44.894;20.286;2023-06-22T15:16:48;12.73;;;7.70;;
40611;SDS011;26317;44.894;20.286;2023-06-22T15:19:18;11.80;;;7.68;;
40611;SDS011;26317;44.894;20.286;2023-06-22T15:21:49;13.35;;;8.38;;
40611;SDS011;26317;44.894;20.286;2023-06-22T15:24:20;10.45;;;8.15;;
40611;SDS011;26317;44.894;20.286;2023-06-22T15:26:50;12.93;;;8.15;;
40611;SDS011;26317;44.894;20.286;2023-06-22T15:29:23;14.07;;;8.32;;
40611;SDS011;26317;44.894;20.286;2023-06-22T15:31:54;10.73;;;9.02;;
40611;SDS011;26317;44.894;20.286;2023-06-22T15:34:24;14.00;;;8.40;;